createdAt,value
2023-05-22T00:01:38.553Z,4.00
2023-05-22T00:16:40.359Z,4.10
2023-05-22T00:31:42.183Z,3.70
2023-05-22T00:46:43.996Z,3.73
2023-05-22T01:01:45.914Z,3.80
2023-05-22T01:17:14.009Z,3.70
2023-05-22T01:32:21.776Z,3.80
2023-05-22T01:47:23.658Z,3.60
2023-05-22T02:02:27.260Z,3.87
2023-05-22T02:17:29.214Z,3.73
2023-05-22T02:32:31.093Z,3.30
2023-05-22T02:47:32.866Z,3.30
2023-05-22T03:02:34.927Z,3.20
2023-05-22T03:17:36.739Z,3.33
2023-05-22T03:32:38.509Z,2.77
2023-05-22T03:47:40.296Z,2.97
2023-05-22T04:02:42.231Z,2.47
2023-05-22T04:17:44.061Z,2.90
2023-05-22T04:32:45.855Z,3.27
2023-05-22T04:47:47.684Z,2.80
2023-05-22T05:02:49.528Z,2.97
2023-05-22T05:17:51.593Z,3.10
2023-05-22T05:32:53.404Z,2.83
2023-05-22T05:47:55.241Z,2.77
2023-05-22T06:02:57.221Z,2.67
2023-05-22T06:17:59.204Z,2.83
2023-05-22T06:33:01.249Z,2.87
2023-05-22T06:48:03.100Z,2.83
2023-05-22T07:03:04.872Z,2.77
2023-05-22T07:18:06.653Z,2.60
2023-05-22T07:33:08.516Z,3.00
2023-05-22T07:48:10.312Z,3.30
2023-05-22T08:03:12.439Z,2.70
2023-05-22T08:18:14.517Z,2.67
2023-05-22T08:33:16.373Z,2.70
2023-05-22T08:48:20.305Z,2.93
2023-05-22T09:03:28.017Z,2.83
2023-05-22T09:18:30.238Z,3.20
2023-05-22T09:33:32.073Z,2.83
2023-05-22T09:48:36.652Z,2.93
2023-05-22T10:03:41.017Z,2.70
2023-05-22T10:18:46.481Z,2.83
2023-05-22T10:33:54.265Z,2.70
2023-05-22T10:48:57.692Z,2.70
2023-05-22T11:04:00.642Z,3.03
2023-05-22T11:19:22.022Z,2.93
2023-05-22T11:34:28.115Z,2.70
2023-05-22T11:49:29.837Z,2.90
2023-05-22T12:04:33.196Z,2.83
2023-05-22T12:19:35.068Z,2.50
2023-05-22T12:34:43.844Z,2.83
2023-05-22T12:49:45.597Z,2.93
2023-05-22T13:04:47.362Z,2.87
2023-05-22T13:19:49.136Z,3.20
2023-05-22T13:34:50.895Z,2.80
2023-05-22T13:49:52.865Z,2.60
2023-05-22T14:04:54.747Z,2.70
2023-05-22T14:19:56.495Z,2.93
2023-05-22T14:34:58.182Z,3.00
2023-05-22T14:50:14.229Z,2.83
2023-05-22T15:05:21.824Z,2.80
2023-05-22T15:20:23.714Z,2.80
2023-05-22T15:35:25.444Z,2.60
2023-05-22T15:50:27.161Z,2.57
2023-05-22T16:05:28.902Z,2.70
2023-05-22T16:20:31.474Z,2.67
2023-05-22T16:35:33.265Z,2.50
2023-05-22T16:50:34.989Z,2.60
2023-05-22T17:05:36.895Z,3.17
2023-05-22T17:20:38.602Z,2.50
2023-05-22T17:35:40.286Z,2.63
2023-05-22T17:50:42.521Z,2.60
2023-05-22T18:05:44.354Z,2.23
2023-05-22T18:20:46.279Z,2.30
2023-05-22T18:35:48.032Z,2.20
2023-05-22T18:50:49.939Z,2.80
2023-05-22T19:05:51.644Z,2.70
2023-05-22T19:20:53.376Z,2.43
2023-05-22T19:35:55.156Z,2.60
2023-05-22T19:50:57.009Z,2.20
2023-05-22T20:05:58.775Z,2.50
2023-05-22T20:21:00.494Z,2.60
2023-05-22T20:36:02.229Z,2.50
2023-05-22T20:51:04.316Z,2.50
2023-05-22T21:06:06.428Z,2.33
2023-05-22T21:21:08.188Z,2.60
2023-05-22T21:36:09.944Z,2.50
2023-05-22T21:51:11.632Z,2.20
2023-05-22T22:06:13.388Z,2.60
2023-05-22T22:21:15.423Z,2.70
2023-05-22T22:36:17.125Z,2.80
2023-05-22T22:51:18.819Z,2.13
2023-05-22T23:06:20.595Z,2.63
2023-05-22T23:21:22.374Z,2.30
2023-05-22T23:36:24.216Z,2.33
2023-05-22T23:51:25.890Z,2.43
